Overview Statistics Trail Chart Weather Telemetry Raw packets
 

This is the latest recevied weather packets stored in our database for station/object KF0WJA. If no packets are shown the sender has not sent any weather packets the latest 10 day(s).

<< 2 3 4 5 6 7 8 >>
Time Temp. Humidity Pressure Rain* Wind** Luminosity Snow
1788644894 38.33° C 33% 1013.9 hPa 0 mm - 468 W/m² -
1788644590 37.78° C 34% 1013.9 hPa 0 mm - 457 W/m² -
1788644284 37.78° C 35% 1013.9 hPa 0 mm - 474 W/m² -
1788643980 38.33° C 35% 1014.1 hPa 0 mm - 498 W/m² -
1788643675 38.89° C 35% 1014.2 hPa 0 mm - 493 W/m² -
1788643375 38.89° C 35% 1014.3 hPa 0 mm - 505 W/m² -
1788643075 38.89° C 33% 1014.2 hPa 0 mm - 558 W/m² -
1788642770 38.89° C 32% 1014.6 hPa 0 mm - 594 W/m² -
1788642467 37.78° C 33% 1014.5 hPa 0 mm - 589 W/m² -
1788642166 38.33° C 32% 1014.7 hPa 0 mm - 616 W/m² -
1788641865 38.33° C 32% 1014.8 hPa 0 mm - 636 W/m² -
1788641560 37.78° C 34% 1014.7 hPa 0 mm - 641 W/m² -
1788641260 38.89° C 33% 1014.8 hPa 0 mm - 655 W/m² -
1788640956 38.33° C 32% 1014.9 hPa 0 mm - 657 W/m² -
1788640655 38.89° C 33% 1015.1 hPa 0 mm - 657 W/m² -
1788640350 37.78° C 35% 1015.2 hPa 0 mm - 653 W/m² -
1788640046 37.78° C 34% 1015 hPa 0 mm - 694 W/m² -
1788639741 37.78° C 36% 1015.1 hPa 0 mm - 658 W/m² -
1788639437 37.78° C 35% 1015.2 hPa 0 mm - 690 W/m² -
1788639137 38.33° C 35% 1015.2 hPa 0 mm - 672 W/m² -
1788638832 37.78° C 35% 1015.3 hPa 0 mm - 438 W/m² -
1788638528 36.67° C 38% 1015.6 hPa 0 mm - 629 W/m² -
1788638226 37.22° C 38% 1015.5 hPa 0 mm - 418 W/m² -
1788637921 37.78° C 37% 1015.5 hPa 0 mm - 679 W/m² -
1788637616 38.33° C 37% 1015.4 hPa 0 mm - 679 W/m² -

* Rain latest hour (hover to see other rain measurements)
** Current wind speed in m/s (hover to see current wind gust speed)